sensor_id;sensor_type;location;lat;lon;timestamp;temperature;humidity
11140;DHT22;5624;49.388;11.350;2023-12-20T00:02:13;3.10;99.90
11140;DHT22;5624;49.388;11.350;2023-12-20T00:04:39;3.10;99.90
11140;DHT22;5624;49.388;11.350;2023-12-20T00:07:04;3.10;99.90
11140;DHT22;5624;49.388;11.350;2023-12-20T00:09:30;3.10;99.90
11140;DHT22;5624;49.388;11.350;2023-12-20T00:11:56;3.10;99.90
11140;DHT22;5624;49.388;11.350;2023-12-20T00:14:22;3.10;99.90
11140;DHT22;5624;49.388;11.350;2023-12-20T00:16:47;3.10;99.90
11140;DHT22;5624;49.388;11.350;2023-12-20T00:19:13;3.10;99.90
11140;DHT22;5624;49.388;11.350;2023-12-20T00:21:38;3.10;99.90
11140;DHT22;5624;49.388;11.350;2023-12-20T00:24:04;3.20;99.90
11140;DHT22;5624;49.388;11.350;2023-12-20T00:26:30;3.20;99.90
11140;DHT22;5624;49.388;11.350;2023-12-20T00:28:55;3.20;99.90
11140;DHT22;5624;49.388;11.350;2023-12-20T00:31:21;3.20;99.90
11140;DHT22;5624;49.388;11.350;2023-12-20T00:33:46;3.20;99.90
11140;DHT22;5624;49.388;11.350;2023-12-20T00:36:12;3.20;99.90
11140;DHT22;5624;49.388;11.350;2023-12-20T00:38:38;3.20;99.90
11140;DHT22;5624;49.388;11.350;2023-12-20T00:41:03;3.20;99.90
11140;DHT22;5624;49.388;11.350;2023-12-20T00:43:29;3.20;99.90
11140;DHT22;5624;49.388;11.350;2023-12-20T00:45:54;3.20;99.90
11140;DHT22;5624;49.388;11.350;2023-12-20T00:48:21;3.20;99.90
11140;DHT22;5624;49.388;11.350;2023-12-20T00:50:46;3.20;99.90
11140;DHT22;5624;49.388;11.350;2023-12-20T00:53:12;3.20;99.90
11140;DHT22;5624;49.388;11.350;2023-12-20T00:55:37;3.20;99.90
11140;DHT22;5624;49.388;11.350;2023-12-20T00:58:03;3.20;99.90
11140;DHT22;5624;49.388;11.350;2023-12-20T01:00:29;3.20;99.90
11140;DHT22;5624;49.388;11.350;2023-12-20T01:02:54;3.10;99.90
11140;DHT22;5624;49.388;11.350;2023-12-20T01:05:20;3.10;99.90
11140;DHT22;5624;49.388;11.350;2023-12-20T01:07:48;3.20;99.90
11140;DHT22;5624;49.388;11.350;2023-12-20T01:10:14;3.20;99.90
11140;DHT22;5624;49.388;11.350;2023-12-20T01:12:39;3.30;99.90
11140;DHT22;5624;49.388;11.350;2023-12-20T01:15:05;3.20;99.90
11140;DHT22;5624;49.388;11.350;2023-12-20T01:17:31;3.20;99.90
11140;DHT22;5624;49.388;11.350;2023-12-20T01:19:56;3.20;99.90
11140;DHT22;5624;49.388;11.350;2023-12-20T01:22:22;3.20;99.90
11140;DHT22;5624;49.388;11.350;2023-12-20T01:24:47;3.20;99.90
11140;DHT22;5624;49.388;11.350;2023-12-20T01:27:13;3.20;99.90
11140;DHT22;5624;49.388;11.350;2023-12-20T01:29:38;3.20;99.90
11140;DHT22;5624;49.388;11.350;2023-12-20T01:32:04;3.20;99.90
11140;DHT22;5624;49.388;11.350;2023-12-20T01:34:30;3.20;99.90
11140;DHT22;5624;49.388;11.350;2023-12-20T01:36:55;3.20;99.90
11140;DHT22;5624;49.388;11.350;2023-12-20T01:39:21;3.30;99.90
11140;DHT22;5624;49.388;11.350;2023-12-20T01:41:46;3.20;99.90
11140;DHT22;5624;49.388;11.350;2023-12-20T01:44:12;3.20;99.90
11140;DHT22;5624;49.388;11.350;2023-12-20T01:46:38;3.30;99.90
11140;DHT22;5624;49.388;11.350;2023-12-20T01:49:03;3.30;99.90
11140;DHT22;5624;49.388;11.350;2023-12-20T01:51:29;3.30;99.90
11140;DHT22;5624;49.388;11.350;2023-12-20T01:53:57;3.30;99.90
11140;DHT22;5624;49.388;11.350;2023-12-20T01:56:23;3.30;99.90
11140;DHT22;5624;49.388;11.350;2023-12-20T01:58:49;3.40;99.90
11140;DHT22;5624;49.388;11.350;2023-12-20T02:01:15;3.30;99.90
11140;DHT22;5624;49.388;11.350;2023-12-20T02:03:41;3.30;99.90
11140;DHT22;5624;49.388;11.350;2023-12-20T02:06:08;3.40;99.90
11140;DHT22;5624;49.388;11.350;2023-12-20T02:08:34;3.30;99.90
11140;DHT22;5624;49.388;11.350;2023-12-20T02:11:01;3.40;99.90
11140;DHT22;5624;49.388;11.350;2023-12-20T02:13:27;3.40;99.90
11140;DHT22;5624;49.388;11.350;2023-12-20T02:15:53;3.40;99.90
11140;DHT22;5624;49.388;11.350;2023-12-20T02:18:19;3.40;99.90
11140;DHT22;5624;49.388;11.350;2023-12-20T02:20:45;3.40;99.90
11140;DHT22;5624;49.388;11.350;2023-12-20T02:23:10;3.40;99.90
11140;DHT22;5624;49.388;11.350;2023-12-20T02:25:36;3.40;99.90
11140;DHT22;5624;49.388;11.350;2023-12-20T02:28:03;3.40;99.90
11140;DHT22;5624;49.388;11.350;2023-12-20T02:30:29;3.50;99.90
11140;DHT22;5624;49.388;11.350;2023-12-20T02:32:54;3.50;99.90
11140;DHT22;5624;49.388;11.350;2023-12-20T02:35:20;3.50;99.90
11140;DHT22;5624;49.388;11.350;2023-12-20T02:37:46;3.50;99.90
11140;DHT22;5624;49.388;11.350;2023-12-20T02:40:11;3.50;99.90
11140;DHT22;5624;49.388;11.350;2023-12-20T02:42:37;3.60;99.90
11140;DHT22;5624;49.388;11.350;2023-12-20T02:45:02;3.50;99.90
11140;DHT22;5624;49.388;11.350;2023-12-20T02:47:28;3.60;99.90
11140;DHT22;5624;49.388;11.350;2023-12-20T02:49:55;3.50;99.90
11140;DHT22;5624;49.388;11.350;2023-12-20T02:52:22;3.50;99.90
11140;DHT22;5624;49.388;11.350;2023-12-20T02:54:47;3.50;99.90
11140;DHT22;5624;49.388;11.350;2023-12-20T02:57:13;3.50;99.90
11140;DHT22;5624;49.388;11.350;2023-12-20T02:59:38;3.40;99.90
11140;DHT22;5624;49.388;11.350;2023-12-20T03:02:04;3.40;99.90
11140;DHT22;5624;49.388;11.350;2023-12-20T03:04:29;3.30;99.90
11140;DHT22;5624;49.388;11.350;2023-12-20T03:06:55;3.30;99.90
11140;DHT22;5624;49.388;11.350;2023-12-20T03:09:20;3.30;99.90
11140;DHT22;5624;49.388;11.350;2023-12-20T03:11:46;3.30;99.90
11140;DHT22;5624;49.388;11.350;2023-12-20T03:14:11;3.30;99.90
11140;DHT22;5624;49.388;11.350;2023-12-20T03:16:37;3.40;99.90
11140;DHT22;5624;49.388;11.350;2023-12-20T03:19:02;3.30;99.90
11140;DHT22;5624;49.388;11.350;2023-12-20T03:21:28;3.20;99.90
11140;DHT22;5624;49.388;11.350;2023-12-20T03:23:53;3.10;99.90
11140;DHT22;5624;49.388;11.350;2023-12-20T03:26:19;3.00;99.90
11140;DHT22;5624;49.388;11.350;2023-12-20T03:28:44;3.00;99.90
11140;DHT22;5624;49.388;11.350;2023-12-20T03:31:10;3.00;99.90
11140;DHT22;5624;49.388;11.350;2023-12-20T03:33:36;2.90;99.90
11140;DHT22;5624;49.388;11.350;2023-12-20T03:36:01;2.90;99.90
11140;DHT22;5624;49.388;11.350;2023-12-20T03:38:27;2.90;99.90
11140;DHT22;5624;49.388;11.350;2023-12-20T03:40:52;2.90;99.90
11140;DHT22;5624;49.388;11.350;2023-12-20T03:43:18;2.80;99.90
11140;DHT22;5624;49.388;11.350;2023-12-20T03:45:43;2.80;99.90
11140;DHT22;5624;49.388;11.350;2023-12-20T03:48:09;2.80;99.90
11140;DHT22;5624;49.388;11.350;2023-12-20T03:50:35;2.80;99.90
11140;DHT22;5624;49.388;11.350;2023-12-20T03:53:01;2.80;99.90
11140;DHT22;5624;49.388;11.350;2023-12-20T03:55:26;2.80;99.90
11140;DHT22;5624;49.388;11.350;2023-12-20T03:57:52;2.80;99.90
11140;DHT22;5624;49.388;11.350;2023-12-20T04:00:17;2.80;99.90
11140;DHT22;5624;49.388;11.350;2023-12-20T04:02:43;2.80;99.90
11140;DHT22;5624;49.388;11.350;2023-12-20T04:05:10;2.80;99.90
11140;DHT22;5624;49.388;11.350;2023-12-20T04:07:36;2.80;99.90
11140;DHT22;5624;49.388;11.350;2023-12-20T04:10:01;2.80;99.90
11140;DHT22;5624;49.388;11.350;2023-12-20T04:12:28;2.80;99.90
11140;DHT22;5624;49.388;11.350;2023-12-20T04:14:53;2.80;99.90
11140;DHT22;5624;49.388;11.350;2023-12-20T04:17:20;2.70;99.90
11140;DHT22;5624;49.388;11.350;2023-12-20T04:19:48;2.70;99.90
11140;DHT22;5624;49.388;11.350;2023-12-20T04:22:13;2.70;99.90
11140;DHT22;5624;49.388;11.350;2023-12-20T04:24:39;2.80;99.90
11140;DHT22;5624;49.388;11.350;2023-12-20T04:27:04;2.80;99.90
11140;DHT22;5624;49.388;11.350;2023-12-20T04:29:30;2.80;99.90
11140;DHT22;5624;49.388;11.350;2023-12-20T04:31:55;2.70;99.90
11140;DHT22;5624;49.388;11.350;2023-12-20T04:34:22;2.70;99.90
11140;DHT22;5624;49.388;11.350;2023-12-20T04:36:48;2.70;99.90
11140;DHT22;5624;49.388;11.350;2023-12-20T04:39:13;2.70;99.90
11140;DHT22;5624;49.388;11.350;2023-12-20T04:41:40;2.70;99.90
11140;DHT22;5624;49.388;11.350;2023-12-20T04:44:06;2.70;99.90
11140;DHT22;5624;49.388;11.350;2023-12-20T04:46:31;2.70;99.90
11140;DHT22;5624;49.388;11.350;2023-12-20T04:48:57;2.70;99.90
11140;DHT22;5624;49.388;11.350;2023-12-20T04:51:23;2.80;99.90
11140;DHT22;5624;49.388;11.350;2023-12-20T04:53:48;2.70;99.90
11140;DHT22;5624;49.388;11.350;2023-12-20T04:56:14;2.80;99.90
11140;DHT22;5624;49.388;11.350;2023-12-20T04:58:39;2.80;99.90
11140;DHT22;5624;49.388;11.350;2023-12-20T05:01:06;2.80;99.90
11140;DHT22;5624;49.388;11.350;2023-12-20T05:03:32;2.80;99.90
11140;DHT22;5624;49.388;11.350;2023-12-20T05:05:58;2.80;99.90
11140;DHT22;5624;49.388;11.350;2023-12-20T05:08:23;2.80;99.90
11140;DHT22;5624;49.388;11.350;2023-12-20T05:10:50;2.80;99.90
11140;DHT22;5624;49.388;11.350;2023-12-20T05:13:16;2.70;99.90
11140;DHT22;5624;49.388;11.350;2023-12-20T05:15:42;2.70;99.90
11140;DHT22;5624;49.388;11.350;2023-12-20T05:18:07;2.70;99.90
11140;DHT22;5624;49.388;11.350;2023-12-20T05:20:33;2.80;99.90
11140;DHT22;5624;49.388;11.350;2023-12-20T05:22:58;2.80;99.90
11140;DHT22;5624;49.388;11.350;2023-12-20T05:25:23;2.80;99.90
11140;DHT22;5624;49.388;11.350;2023-12-20T05:27:50;2.80;99.90
11140;DHT22;5624;49.388;11.350;2023-12-20T05:30:15;2.80;99.90
11140;DHT22;5624;49.388;11.350;2023-12-20T05:32:41;2.80;99.90
11140;DHT22;5624;49.388;11.350;2023-12-20T05:35:06;2.80;99.90
11140;DHT22;5624;49.388;11.350;2023-12-20T05:37:32;2.70;99.90
11140;DHT22;5624;49.388;11.350;2023-12-20T05:39:58;2.80;99.90
11140;DHT22;5624;49.388;11.350;2023-12-20T05:42:23;2.80;99.90
11140;DHT22;5624;49.388;11.350;2023-12-20T05:44:49;2.80;99.90
11140;DHT22;5624;49.388;11.350;2023-12-20T05:47:14;2.80;99.90
11140;DHT22;5624;49.388;11.350;2023-12-20T05:49:40;2.70;99.90
11140;DHT22;5624;49.388;11.350;2023-12-20T05:52:05;2.80;99.90
11140;DHT22;5624;49.388;11.350;2023-12-20T05:54:31;2.70;99.90
11140;DHT22;5624;49.388;11.350;2023-12-20T05:56:57;2.70;99.90
11140;DHT22;5624;49.388;11.350;2023-12-20T05:59:22;2.70;99.90
11140;DHT22;5624;49.388;11.350;2023-12-20T06:01:48;2.70;99.90
11140;DHT22;5624;49.388;11.350;2023-12-20T06:04:13;2.70;99.90
11140;DHT22;5624;49.388;11.350;2023-12-20T06:06:42;2.70;99.90
11140;DHT22;5624;49.388;11.350;2023-12-20T06:09:08;2.70;99.90
11140;DHT22;5624;49.388;11.350;2023-12-20T06:11:33;2.80;99.90
11140;DHT22;5624;49.388;11.350;2023-12-20T06:13:59;2.70;99.90
11140;DHT22;5624;49.388;11.350;2023-12-20T06:16:24;2.80;99.90
11140;DHT22;5624;49.388;11.350;2023-12-20T06:18:50;2.80;99.90
11140;DHT22;5624;49.388;11.350;2023-12-20T06:21:16;2.80;99.90
11140;DHT22;5624;49.388;11.350;2023-12-20T06:23:42;2.80;99.90
11140;DHT22;5624;49.388;11.350;2023-12-20T06:26:07;2.80;99.90
11140;DHT22;5624;49.388;11.350;2023-12-20T06:28:33;2.80;99.90
11140;DHT22;5624;49.388;11.350;2023-12-20T06:30:58;2.80;99.90
11140;DHT22;5624;49.388;11.350;2023-12-20T06:33:25;2.80;99.90
11140;DHT22;5624;49.388;11.350;2023-12-20T06:35:51;2.80;99.90
11140;DHT22;5624;49.388;11.350;2023-12-20T06:38:18;2.80;99.90
11140;DHT22;5624;49.388;11.350;2023-12-20T06:40:43;2.80;99.90
11140;DHT22;5624;49.388;11.350;2023-12-20T06:43:09;2.80;99.90
11140;DHT22;5624;49.388;11.350;2023-12-20T06:45:35;2.80;99.90
11140;DHT22;5624;49.388;11.350;2023-12-20T06:48:00;2.80;99.90
11140;DHT22;5624;49.388;11.350;2023-12-20T06:50:26;2.80;99.90
11140;DHT22;5624;49.388;11.350;2023-12-20T06:52:51;2.80;99.90
11140;DHT22;5624;49.388;11.350;2023-12-20T06:55:18;2.80;99.90
11140;DHT22;5624;49.388;11.350;2023-12-20T06:57:43;2.80;99.90
11140;DHT22;5624;49.388;11.350;2023-12-20T07:00:11;2.80;99.90
11140;DHT22;5624;49.388;11.350;2023-12-20T07:02:37;2.90;99.90
11140;DHT22;5624;49.388;11.350;2023-12-20T07:05:02;2.80;99.90
11140;DHT22;5624;49.388;11.350;2023-12-20T07:07:28;2.90;99.90
11140;DHT22;5624;49.388;11.350;2023-12-20T07:09:53;2.80;99.90
11140;DHT22;5624;49.388;11.350;2023-12-20T07:12:19;2.80;99.90
11140;DHT22;5624;49.388;11.350;2023-12-20T07:14:45;2.90;99.90
11140;DHT22;5624;49.388;11.350;2023-12-20T07:17:11;2.90;99.90
11140;DHT22;5624;49.388;11.350;2023-12-20T07:19:39;2.90;99.90
11140;DHT22;5624;49.388;11.350;2023-12-20T07:22:05;2.90;99.90
11140;DHT22;5624;49.388;11.350;2023-12-20T07:24:31;2.90;99.90
11140;DHT22;5624;49.388;11.350;2023-12-20T07:26:57;2.90;99.90
11140;DHT22;5624;49.388;11.350;2023-12-20T07:29:22;2.90;99.90
11140;DHT22;5624;49.388;11.350;2023-12-20T07:31:48;2.90;99.90
11140;DHT22;5624;49.388;11.350;2023-12-20T07:34:13;3.00;99.90
11140;DHT22;5624;49.388;11.350;2023-12-20T07:36:39;3.00;99.90
11140;DHT22;5624;49.388;11.350;2023-12-20T07:39:04;3.00;99.90
11140;DHT22;5624;49.388;11.350;2023-12-20T07:41:30;3.00;99.90
11140;DHT22;5624;49.388;11.350;2023-12-20T07:43:55;3.00;99.90
11140;DHT22;5624;49.388;11.350;2023-12-20T07:46:22;3.00;99.90
11140;DHT22;5624;49.388;11.350;2023-12-20T07:48:50;3.00;99.90
11140;DHT22;5624;49.388;11.350;2023-12-20T07:51:16;3.00;99.90
11140;DHT22;5624;49.388;11.350;2023-12-20T07:53:42;3.00;99.90
11140;DHT22;5624;49.388;11.350;2023-12-20T07:56:17;3.10;99.90
11140;DHT22;5624;49.388;11.350;2023-12-20T07:58:43;3.10;99.90
11140;DHT22;5624;49.388;11.350;2023-12-20T08:01:10;3.20;99.90
11140;DHT22;5624;49.388;11.350;2023-12-20T08:03:36;3.20;99.90
11140;DHT22;5624;49.388;11.350;2023-12-20T08:06:02;3.20;99.90
11140;DHT22;5624;49.388;11.350;2023-12-20T08:08:28;3.20;99.90
11140;DHT22;5624;49.388;11.350;2023-12-20T08:10:53;3.20;99.90
11140;DHT22;5624;49.388;11.350;2023-12-20T08:13:19;3.20;99.90
11140;DHT22;5624;49.388;11.350;2023-12-20T08:15:44;3.30;99.90
11140;DHT22;5624;49.388;11.350;2023-12-20T08:18:10;3.30;99.90
11140;DHT22;5624;49.388;11.350;2023-12-20T08:20:35;3.20;99.90
11140;DHT22;5624;49.388;11.350;2023-12-20T08:23:01;3.30;99.90
11140;DHT22;5624;49.388;11.350;2023-12-20T08:25:26;3.30;99.90
11140;DHT22;5624;49.388;11.350;2023-12-20T08:27:53;3.30;99.90
11140;DHT22;5624;49.388;11.350;2023-12-20T08:30:18;3.30;99.90
11140;DHT22;5624;49.388;11.350;2023-12-20T08:32:50;3.30;99.90
11140;DHT22;5624;49.388;11.350;2023-12-20T08:35:15;3.30;99.90
11140;DHT22;5624;49.388;11.350;2023-12-20T08:37:41;3.30;99.90
11140;DHT22;5624;49.388;11.350;2023-12-20T08:40:07;3.30;99.90
11140;DHT22;5624;49.388;11.350;2023-12-20T08:42:32;3.40;99.90
11140;DHT22;5624;49.388;11.350;2023-12-20T08:44:58;3.40;99.90
11140;DHT22;5624;49.388;11.350;2023-12-20T08:47:24;3.40;99.90
11140;DHT22;5624;49.388;11.350;2023-12-20T08:49:50;3.40;99.90
11140;DHT22;5624;49.388;11.350;2023-12-20T08:52:15;3.40;99.90
11140;DHT22;5624;49.388;11.350;2023-12-20T08:54:41;3.40;99.90
11140;DHT22;5624;49.388;11.350;2023-12-20T08:57:07;3.50;99.90
11140;DHT22;5624;49.388;11.350;2023-12-20T08:59:33;3.60;99.90
11140;DHT22;5624;49.388;11.350;2023-12-20T09:01:58;3.50;99.90
11140;DHT22;5624;49.388;11.350;2023-12-20T09:04:24;3.60;99.90
11140;DHT22;5624;49.388;11.350;2023-12-20T09:06:50;3.60;99.90
11140;DHT22;5624;49.388;11.350;2023-12-20T09:09:16;3.60;99.90
11140;DHT22;5624;49.388;11.350;2023-12-20T09:11:41;3.60;99.90
11140;DHT22;5624;49.388;11.350;2023-12-20T09:14:07;3.70;99.90
11140;DHT22;5624;49.388;11.350;2023-12-20T09:16:33;3.70;99.90
11140;DHT22;5624;49.388;11.350;2023-12-20T09:18:59;3.80;99.90
11140;DHT22;5624;49.388;11.350;2023-12-20T09:21:24;3.90;99.90
11140;DHT22;5624;49.388;11.350;2023-12-20T09:23:50;4.00;99.90
11140;DHT22;5624;49.388;11.350;2023-12-20T09:26:15;3.90;99.90
11140;DHT22;5624;49.388;11.350;2023-12-20T09:28:41;3.80;99.90
11140;DHT22;5624;49.388;11.350;2023-12-20T09:31:07;3.80;99.90
11140;DHT22;5624;49.388;11.350;2023-12-20T09:33:33;3.80;99.90
11140;DHT22;5624;49.388;11.350;2023-12-20T09:35:59;3.70;99.90
11140;DHT22;5624;49.388;11.350;2023-12-20T09:38:24;3.80;99.90
11140;DHT22;5624;49.388;11.350;2023-12-20T09:40:50;3.90;99.90
11140;DHT22;5624;49.388;11.350;2023-12-20T09:43:19;4.00;99.90
11140;DHT22;5624;49.388;11.350;2023-12-20T09:45:47;4.00;99.90
11140;DHT22;5624;49.388;11.350;2023-12-20T09:48:13;3.90;99.90
11140;DHT22;5624;49.388;11.350;2023-12-20T09:50:40;3.90;99.90
11140;DHT22;5624;49.388;11.350;2023-12-20T09:53:08;4.10;99.90
11140;DHT22;5624;49.388;11.350;2023-12-20T09:55:36;4.30;99.90
11140;DHT22;5624;49.388;11.350;2023-12-20T09:58:02;4.40;99.90
11140;DHT22;5624;49.388;11.350;2023-12-20T10:00:28;4.50;99.90
11140;DHT22;5624;49.388;11.350;2023-12-20T10:02:58;4.50;99.90
11140;DHT22;5624;49.388;11.350;2023-12-20T10:05:29;4.60;99.90
11140;DHT22;5624;49.388;11.350;2023-12-20T10:07:55;4.80;99.90
11140;DHT22;5624;49.388;11.350;2023-12-20T10:10:21;4.80;99.90
11140;DHT22;5624;49.388;11.350;2023-12-20T10:13:04;5.00;99.90
11140;DHT22;5624;49.388;11.350;2023-12-20T10:15:30;5.10;99.90
11140;DHT22;5624;49.388;11.350;2023-12-20T10:17:57;5.40;99.90
11140;DHT22;5624;49.388;11.350;2023-12-20T10:20:22;5.50;99.90
11140;DHT22;5624;49.388;11.350;2023-12-20T10:22:48;5.60;98.90
11140;DHT22;5624;49.388;11.350;2023-12-20T10:25:14;5.40;96.50
11140;DHT22;5624;49.388;11.350;2023-12-20T10:27:40;5.20;96.40
11140;DHT22;5624;49.388;11.350;2023-12-20T10:30:06;5.10;96.50
11140;DHT22;5624;49.388;11.350;2023-12-20T10:32:31;4.90;98.20
11140;DHT22;5624;49.388;11.350;2023-12-20T10:34:58;4.80;97.70
11140;DHT22;5624;49.388;11.350;2023-12-20T10:37:24;4.80;99.00
11140;DHT22;5624;49.388;11.350;2023-12-20T10:39:52;5.00;99.90
11140;DHT22;5624;49.388;11.350;2023-12-20T10:42:21;5.00;98.70
11140;DHT22;5624;49.388;11.350;2023-12-20T10:44:49;5.10;98.70
11140;DHT22;5624;49.388;11.350;2023-12-20T10:47:15;5.20;97.60
11140;DHT22;5624;49.388;11.350;2023-12-20T10:49:41;5.20;97.60
11140;DHT22;5624;49.388;11.350;2023-12-20T10:52:09;5.10;97.10
11140;DHT22;5624;49.388;11.350;2023-12-20T10:54:34;5.00;96.30
11140;DHT22;5624;49.388;11.350;2023-12-20T10:57:04;4.90;97.10
11140;DHT22;5624;49.388;11.350;2023-12-20T10:59:33;4.90;98.20
11140;DHT22;5624;49.388;11.350;2023-12-20T11:01:59;4.90;98.10
11140;DHT22;5624;49.388;11.350;2023-12-20T11:04:39;4.80;98.10
11140;DHT22;5624;49.388;11.350;2023-12-20T11:07:21;4.80;97.70
11140;DHT22;5624;49.388;11.350;2023-12-20T11:09:58;4.70;99.00
11140;DHT22;5624;49.388;11.350;2023-12-20T11:12:47;4.60;97.80
11140;DHT22;5624;49.388;11.350;2023-12-20T11:15:14;4.60;98.60
11140;DHT22;5624;49.388;11.350;2023-12-20T11:17:40;4.50;98.70
11140;DHT22;5624;49.388;11.350;2023-12-20T11:20:10;4.50;98.80
11140;DHT22;5624;49.388;11.350;2023-12-20T11:22:37;4.50;99.00
11140;DHT22;5624;49.388;11.350;2023-12-20T11:27:30;4.30;99.80
11140;DHT22;5624;49.388;11.350;2023-12-20T11:29:57;4.20;99.90
11140;DHT22;5624;49.388;11.350;2023-12-20T11:34:59;4.20;99.90
11140;DHT22;5624;49.388;11.350;2023-12-20T11:37:32;4.30;99.90
11140;DHT22;5624;49.388;11.350;2023-12-20T11:40:07;4.30;99.90
11140;DHT22;5624;49.388;11.350;2023-12-20T11:42:41;4.30;99.90
11140;DHT22;5624;49.388;11.350;2023-12-20T11:45:11;4.30;99.90
11140;DHT22;5624;49.388;11.350;2023-12-20T11:47:40;4.30;99.90
11140;DHT22;5624;49.388;11.350;2023-12-20T11:50:06;4.20;99.90
11140;DHT22;5624;49.388;11.350;2023-12-20T11:52:32;4.20;99.90
11140;DHT22;5624;49.388;11.350;2023-12-20T11:54:57;4.00;99.90
11140;DHT22;5624;49.388;11.350;2023-12-20T11:57:23;4.00;99.90
11140;DHT22;5624;49.388;11.350;2023-12-20T11:59:50;3.90;99.90
11140;DHT22;5624;49.388;11.350;2023-12-20T12:02:15;3.90;99.90
11140;DHT22;5624;49.388;11.350;2023-12-20T12:04:41;4.00;99.90
11140;DHT22;5624;49.388;11.350;2023-12-20T12:07:07;4.00;99.90
11140;DHT22;5624;49.388;11.350;2023-12-20T12:09:33;4.10;99.90
11140;DHT22;5624;49.388;11.350;2023-12-20T12:11:58;4.20;99.90
11140;DHT22;5624;49.388;11.350;2023-12-20T12:14:24;4.30;99.90
11140;DHT22;5624;49.388;11.350;2023-12-20T12:16:50;4.30;99.90
11140;DHT22;5624;49.388;11.350;2023-12-20T12:19:25;4.20;99.90
11140;DHT22;5624;49.388;11.350;2023-12-20T12:22:03;4.00;99.90
11140;DHT22;5624;49.388;11.350;2023-12-20T12:24:29;4.00;99.90
11140;DHT22;5624;49.388;11.350;2023-12-20T12:26:57;3.90;99.90
11140;DHT22;5624;49.388;11.350;2023-12-20T12:29:23;3.90;99.90
11140;DHT22;5624;49.388;11.350;2023-12-20T12:31:50;3.90;99.90
11140;DHT22;5624;49.388;11.350;2023-12-20T12:34:17;3.90;99.90
11140;DHT22;5624;49.388;11.350;2023-12-20T12:36:43;3.90;99.90
11140;DHT22;5624;49.388;11.350;2023-12-20T12:39:09;3.90;99.90
11140;DHT22;5624;49.388;11.350;2023-12-20T12:41:37;3.90;99.90
11140;DHT22;5624;49.388;11.350;2023-12-20T12:44:02;4.00;99.90
11140;DHT22;5624;49.388;11.350;2023-12-20T12:46:28;4.00;99.90
11140;DHT22;5624;49.388;11.350;2023-12-20T12:48:54;4.10;99.90
11140;DHT22;5624;49.388;11.350;2023-12-20T12:51:19;4.10;99.90
11140;DHT22;5624;49.388;11.350;2023-12-20T12:53:45;4.20;99.90
11140;DHT22;5624;49.388;11.350;2023-12-20T12:56:12;4.10;99.90
11140;DHT22;5624;49.388;11.350;2023-12-20T12:58:38;4.10;99.90
11140;DHT22;5624;49.388;11.350;2023-12-20T13:01:04;4.00;99.90
11140;DHT22;5624;49.388;11.350;2023-12-20T13:03:29;4.00;99.90
11140;DHT22;5624;49.388;11.350;2023-12-20T13:05:55;4.00;99.90
11140;DHT22;5624;49.388;11.350;2023-12-20T13:08:21;4.00;99.90
11140;DHT22;5624;49.388;11.350;2023-12-20T13:10:47;4.00;99.90
11140;DHT22;5624;49.388;11.350;2023-12-20T13:13:13;4.00;99.90
11140;DHT22;5624;49.388;11.350;2023-12-20T13:15:38;4.00;99.90
11140;DHT22;5624;49.388;11.350;2023-12-20T13:18:04;4.00;99.90
11140;DHT22;5624;49.388;11.350;2023-12-20T13:20:31;4.00;99.90
11140;DHT22;5624;49.388;11.350;2023-12-20T13:22:57;4.00;99.90
11140;DHT22;5624;49.388;11.350;2023-12-20T13:25:22;4.00;99.90
11140;DHT22;5624;49.388;11.350;2023-12-20T13:27:49;4.10;99.90
11140;DHT22;5624;49.388;11.350;2023-12-20T13:30:16;4.10;99.90
11140;DHT22;5624;49.388;11.350;2023-12-20T13:32:42;4.00;99.90
11140;DHT22;5624;49.388;11.350;2023-12-20T13:35:08;4.10;99.90
11140;DHT22;5624;49.388;11.350;2023-12-20T13:37:34;4.00;99.90
11140;DHT22;5624;49.388;11.350;2023-12-20T13:40:00;3.90;99.90
11140;DHT22;5624;49.388;11.350;2023-12-20T13:42:25;3.90;99.90
11140;DHT22;5624;49.388;11.350;2023-12-20T13:44:53;3.90;99.90
11140;DHT22;5624;49.388;11.350;2023-12-20T13:47:18;3.80;99.90
11140;DHT22;5624;49.388;11.350;2023-12-20T13:49:45;3.80;99.90
11140;DHT22;5624;49.388;11.350;2023-12-20T13:52:10;3.90;99.90
11140;DHT22;5624;49.388;11.350;2023-12-20T13:54:37;3.90;99.90
11140;DHT22;5624;49.388;11.350;2023-12-20T13:57:03;3.90;99.90
11140;DHT22;5624;49.388;11.350;2023-12-20T13:59:28;4.00;99.90
11140;DHT22;5624;49.388;11.350;2023-12-20T14:01:54;4.00;99.90
11140;DHT22;5624;49.388;11.350;2023-12-20T14:04:20;3.90;99.90
11140;DHT22;5624;49.388;11.350;2023-12-20T14:06:47;3.90;99.90
11140;DHT22;5624;49.388;11.350;2023-12-20T14:09:12;3.90;99.90
11140;DHT22;5624;49.388;11.350;2023-12-20T14:11:38;3.80;99.90
11140;DHT22;5624;49.388;11.350;2023-12-20T14:14:07;3.80;99.90
11140;DHT22;5624;49.388;11.350;2023-12-20T14:16:34;3.70;99.90
11140;DHT22;5624;49.388;11.350;2023-12-20T14:19:00;3.70;99.90
11140;DHT22;5624;49.388;11.350;2023-12-20T14:21:25;3.60;99.90
11140;DHT22;5624;49.388;11.350;2023-12-20T14:23:51;3.60;99.90
11140;DHT22;5624;49.388;11.350;2023-12-20T14:26:17;3.60;99.90
11140;DHT22;5624;49.388;11.350;2023-12-20T14:28:43;3.60;99.90
11140;DHT22;5624;49.388;11.350;2023-12-20T14:31:09;3.60;99.90
11140;DHT22;5624;49.388;11.350;2023-12-20T14:33:36;3.50;99.90
11140;DHT22;5624;49.388;11.350;2023-12-20T14:36:04;3.60;99.90
11140;DHT22;5624;49.388;11.350;2023-12-20T14:38:31;3.60;99.90
11140;DHT22;5624;49.388;11.350;2023-12-20T14:40:56;3.70;99.90
11140;DHT22;5624;49.388;11.350;2023-12-20T14:43:22;3.70;99.90
11140;DHT22;5624;49.388;11.350;2023-12-20T14:45:48;3.60;99.90
11140;DHT22;5624;49.388;11.350;2023-12-20T14:48:14;3.60;99.90
11140;DHT22;5624;49.388;11.350;2023-12-20T14:50:39;3.60;99.90
11140;DHT22;5624;49.388;11.350;2023-12-20T14:53:08;3.50;99.90
11140;DHT22;5624;49.388;11.350;2023-12-20T14:55:34;3.40;99.90
11140;DHT22;5624;49.388;11.350;2023-12-20T14:57:59;3.40;99.90
11140;DHT22;5624;49.388;11.350;2023-12-20T15:00:26;3.50;99.90
11140;DHT22;5624;49.388;11.350;2023-12-20T15:02:52;3.40;99.90
11140;DHT22;5624;49.388;11.350;2023-12-20T15:05:19;3.40;99.90
11140;DHT22;5624;49.388;11.350;2023-12-20T15:07:45;3.30;99.90
11140;DHT22;5624;49.388;11.350;2023-12-20T15:10:12;3.30;99.90
11140;DHT22;5624;49.388;11.350;2023-12-20T15:12:38;3.30;99.90
11140;DHT22;5624;49.388;11.350;2023-12-20T15:15:04;3.30;99.90
11140;DHT22;5624;49.388;11.350;2023-12-20T15:17:30;3.30;99.90
11140;DHT22;5624;49.388;11.350;2023-12-20T15:19:55;3.30;99.90
11140;DHT22;5624;49.388;11.350;2023-12-20T15:22:21;3.30;99.90
11140;DHT22;5624;49.388;11.350;2023-12-20T15:24:46;3.30;99.90
11140;DHT22;5624;49.388;11.350;2023-12-20T15:27:12;3.30;99.90
11140;DHT22;5624;49.388;11.350;2023-12-20T15:29:38;3.30;99.90
11140;DHT22;5624;49.388;11.350;2023-12-20T15:32:04;3.30;99.90
11140;DHT22;5624;49.388;11.350;2023-12-20T15:34:30;3.20;99.90
11140;DHT22;5624;49.388;11.350;2023-12-20T15:36:57;3.30;99.90
11140;DHT22;5624;49.388;11.350;2023-12-20T15:39:22;3.20;99.90
11140;DHT22;5624;49.388;11.350;2023-12-20T15:41:48;3.20;99.90
11140;DHT22;5624;49.388;11.350;2023-12-20T15:44:14;3.20;99.90